Hauptseite
METAR-TAF:

METAR-TAF

Flughäfen :

Flughafen Angers Loire

Angers, Frankreich

Breite: 47-33-37N, Länge: 000-18-44W, Höhe: 59 m

Beobachtung

Neuester Wetterbericht von vor 18 Minuten, um 18:30 UTC
Wind 2 kt aus unterschiedlichen Richtungen
Temperatur 33°C
Luftfeuchtigkeit 24%
Luftdruck 1015 hPa
Sichtweite 10 km oder mehr
keine Wolken unter 1500 m und keine Kumulonimbus oder Gewitterwolken

METAR: LFJR 061830Z AUTO VRB02KT CAVOK 33/10 Q1015

Zeit: 20:48 (18:48 UTC)


TAF: fehlend

Wetterbeobachtungen und Prognosen von mehr als 4000 Flughäfen (METAR und TAF Bericht).

Die verfügbaren Stationen werden durch gelbe und rote Markierungen auf der Karte dargestellt.

Führen Sie die Maus auf sie, um den Namen der Station zu sehen.

Darauf klicken, um die Beobachtung von Wetterbeobachtungen und Prognosen zu sehen.

Um die Karte zu ändern : klicken Sie auf den grünen Tasten mit einem schwarzen Kreuz Zum Vergrößern, auf den grünen Button mit einem Gedankenstrich zu verkleinern, oder auf die grünen Pfeile für benachbarte Karten.


METAR-TAF: